createdAt,value
2019-04-30T00:01:55.817Z,98.75
2019-04-30T00:04:34.512Z,98.52
2019-04-30T00:07:05.520Z,98.51
2019-04-30T00:09:39.158Z,98.48
2019-04-30T00:12:11.825Z,98.36
2019-04-30T00:14:44.888Z,98.44
2019-04-30T00:17:19.681Z,98.49
2019-04-30T00:19:58.243Z,98.47
2019-04-30T00:22:33.170Z,98.29
2019-04-30T00:24:58.515Z,98.29
2019-04-30T00:27:30.877Z,98.25
2019-04-30T00:30:07.298Z,98.19
2019-04-30T00:32:39.063Z,98.17
2019-04-30T00:35:17.381Z,98.10
2019-04-30T00:37:51.689Z,98.05
2019-04-30T00:40:21.720Z,98.02
2019-04-30T00:42:53.137Z,97.99
2019-04-30T00:45:25.286Z,97.99
2019-04-30T00:47:57.273Z,98.03
2019-04-30T00:50:33.930Z,97.97
2019-04-30T00:53:05.890Z,97.98
2019-04-30T00:55:38.115Z,97.88
2019-04-30T00:58:10.667Z,97.86
2019-04-30T01:00:51.573Z,97.90
2019-04-30T01:03:26.905Z,97.84
2019-04-30T01:05:58.859Z,97.75
2019-04-30T01:08:31.230Z,97.62
2019-04-30T01:11:06.530Z,97.68
2019-04-30T01:13:38.942Z,97.50
2019-04-30T01:16:10.965Z,97.61
2019-04-30T01:18:42.961Z,97.25
2019-04-30T01:21:14.953Z,97.30
2019-04-30T01:23:51.788Z,97.31
2019-04-30T01:26:22.864Z,97.25
2019-04-30T01:29:00.573Z,96.95
2019-04-30T01:31:31.725Z,96.92
2019-04-30T01:34:05.055Z,96.68
2019-04-30T01:36:36.308Z,96.68
2019-04-30T01:39:09.479Z,96.53
2019-04-30T01:41:41.585Z,96.23
2019-04-30T01:44:13.570Z,96.03
2019-04-30T01:46:48.216Z,95.92
2019-04-30T01:49:20.383Z,95.69
2019-04-30T01:51:57.080Z,95.83
2019-04-30T01:54:26.597Z,95.81
2019-04-30T01:57:29.696Z,95.83
2019-04-30T02:00:05.573Z,95.62
2019-04-30T02:02:39.561Z,95.47
2019-04-30T02:05:11.471Z,95.50
2019-04-30T02:07:45.928Z,95.45
2019-04-30T02:10:18.622Z,95.42
2019-04-30T02:12:51.208Z,95.56
2019-04-30T02:15:23.196Z,95.49
2019-04-30T02:17:55.152Z,95.25
2019-04-30T02:20:28.690Z,95.35
2019-04-30T02:23:01.009Z,95.38
2019-04-30T02:25:32.970Z,95.37
2019-04-30T02:28:04.939Z,95.44
2019-04-30T02:30:40.206Z,95.38
2019-04-30T02:33:10.703Z,95.35
2019-04-30T02:36:03.707Z,95.31
2019-04-30T02:38:36.022Z,95.44
2019-04-30T02:41:09.977Z,95.68
2019-04-30T02:43:43.601Z,95.86
2019-04-30T02:46:19.066Z,95.87
2019-04-30T02:48:52.417Z,95.63
2019-04-30T02:51:29.910Z,95.76
2019-04-30T02:54:14.089Z,95.81
2019-04-30T02:56:50.715Z,95.66
2019-04-30T02:59:23.046Z,95.58
2019-04-30T03:01:55.038Z,95.43
2019-04-30T03:04:29.246Z,95.57
2019-04-30T03:07:01.006Z,95.69
2019-04-30T03:09:33.744Z,95.56
2019-04-30T03:12:05.761Z,95.63
2019-04-30T03:14:39.946Z,95.58
2019-04-30T03:17:21.132Z,95.70
2019-04-30T03:20:00.213Z,95.73
2019-04-30T03:22:32.030Z,95.63
2019-04-30T03:25:04.009Z,95.56
2019-04-30T03:27:36.043Z,95.47
2019-04-30T03:30:11.905Z,95.33
2019-04-30T03:32:43.286Z,95.24
2019-04-30T03:35:15.678Z,95.05
2019-04-30T03:37:49.640Z,95.16
2019-04-30T03:40:21.373Z,94.91
2019-04-30T03:42:53.412Z,94.80
2019-04-30T03:45:25.337Z,94.82
2019-04-30T03:47:59.609Z,94.85
2019-04-30T03:50:48.185Z,94.80
2019-04-30T03:53:04.966Z,94.44
2019-04-30T03:55:36.973Z,94.34
2019-04-30T03:58:09.316Z,94.05
2019-04-30T04:01:03.288Z,94.07
2019-04-30T04:03:42.044Z,94.29
2019-04-30T04:06:29.136Z,94.07
2019-04-30T04:09:06.903Z,93.67
2019-04-30T04:11:41.788Z,93.72
2019-04-30T04:14:13.832Z,93.28
2019-04-30T04:16:45.811Z,93.17
2019-04-30T04:19:19.694Z,93.12
2019-04-30T04:21:51.518Z,92.92
2019-04-30T04:24:23.492Z,92.52
2019-04-30T04:26:55.474Z,92.27
2019-04-30T04:29:29.821Z,91.70
2019-04-30T04:32:01.269Z,91.47
2019-04-30T04:34:33.310Z,91.20
2019-04-30T04:37:06.310Z,91.02
2019-04-30T04:39:38.882Z,90.72
2019-04-30T04:42:12.042Z,90.66
2019-04-30T04:44:44.037Z,90.58
2019-04-30T04:47:16.390Z,90.26
2019-04-30T04:49:52.960Z,90.09
2019-04-30T04:52:22.985Z,89.77
2019-04-30T04:54:55.072Z,89.58
2019-04-30T04:57:27.113Z,89.64
2019-04-30T05:00:06.573Z,89.50
2019-04-30T05:02:59.361Z,89.15
2019-04-30T05:05:31.503Z,89.28
2019-04-30T05:08:03.571Z,89.14
2019-04-30T05:10:35.647Z,89.08
2019-04-30T05:13:09.219Z,88.76
2019-04-30T05:15:41.339Z,88.51
2019-04-30T05:18:13.457Z,88.61
2019-04-30T05:20:45.657Z,88.24
2019-04-30T05:23:21.546Z,88.20
2019-04-30T05:25:51.325Z,88.30
2019-04-30T05:28:23.378Z,88.07
2019-04-30T05:30:55.385Z,87.16
2019-04-30T05:33:28.582Z,87.76
2019-04-30T05:36:01.187Z,87.43
2019-04-30T05:38:33.196Z,87.11
2019-04-30T05:41:05.171Z,85.60
2019-04-30T05:43:38.705Z,84.14
2019-04-30T05:46:14.035Z,83.72
2019-04-30T05:48:45.281Z,83.01
2019-04-30T05:51:19.285Z,83.10
2019-04-30T05:53:51.270Z,82.87
2019-04-30T05:56:23.398Z,82.29
2019-04-30T05:58:55.433Z,81.92
2019-04-30T06:01:29.365Z,81.28
2019-04-30T06:04:01.155Z,80.53
2019-04-30T06:06:33.694Z,80.52
2019-04-30T06:09:16.088Z,80.46
2019-04-30T06:11:59.143Z,80.25
2019-04-30T06:14:48.940Z,80.14
2019-04-30T06:17:19.731Z,79.23
2019-04-30T06:19:52.096Z,80.55
2019-04-30T06:22:24.543Z,80.14
2019-04-30T06:24:56.494Z,80.47
2019-04-30T06:27:29.225Z,80.47
2019-04-30T06:30:01.382Z,80.40
2019-04-30T06:32:33.630Z,80.27
2019-04-30T06:35:05.915Z,79.45
2019-04-30T06:37:39.045Z,79.52
2019-04-30T06:40:12.337Z,78.80
2019-04-30T06:42:44.381Z,77.69
2019-04-30T06:45:18.984Z,75.78
2019-04-30T06:47:51.508Z,75.14
2019-04-30T06:50:23.635Z,74.74
2019-04-30T06:52:58.794Z,75.16
2019-04-30T06:55:30.904Z,75.37
2019-04-30T06:58:11.934Z,74.09
2019-04-30T07:00:40.663Z,73.48
2019-04-30T07:03:12.711Z,73.72
2019-04-30T07:05:44.648Z,72.07
2019-04-30T07:08:54.814Z,71.28
2019-04-30T07:11:30.986Z,70.40
2019-04-30T07:14:03.011Z,70.66
2019-04-30T07:16:35.012Z,71.74
2019-04-30T07:19:06.978Z,70.15
2019-04-30T07:21:42.784Z,69.75
2019-04-30T07:24:12.813Z,68.21
2019-04-30T07:26:44.952Z,69.17
2019-04-30T07:29:17.110Z,69.45
2019-04-30T07:31:51.579Z,68.77
2019-04-30T07:34:23.870Z,68.75
2019-04-30T07:37:10.711Z,67.78
2019-04-30T07:39:33.315Z,66.44
2019-04-30T07:42:03.706Z,62.05
2019-04-30T07:44:36.720Z,61.23
2019-04-30T07:47:09.674Z,60.00
2019-04-30T07:49:51.563Z,52.89
2019-04-30T07:52:16.343Z,51.38
2019-04-30T07:54:51.580Z,50.47
2019-04-30T07:57:22.776Z,45.64
2019-04-30T07:59:54.877Z,26.81
2019-04-30T08:02:29.749Z,22.57
2019-04-30T08:05:11.171Z,22.69
2019-04-30T08:07:43.252Z,23.30
2019-04-30T08:10:15.499Z,27.10
2019-04-30T08:12:50.423Z,30.27
2019-04-30T08:15:22.072Z,32.46
2019-04-30T08:18:02.626Z,32.01
2019-04-30T08:20:29.543Z,32.66
2019-04-30T08:23:13.391Z,30.72
2019-04-30T08:25:35.394Z,25.21
2019-04-30T08:28:09.099Z,27.59
2019-04-30T08:30:41.305Z,28.53
2019-04-30T08:33:13.307Z,31.52
2019-04-30T08:35:45.440Z,33.46
2019-04-30T08:38:19.115Z,32.94
2019-04-30T08:40:55.991Z,34.33
2019-04-30T08:43:25.335Z,28.47
2019-04-30T08:45:59.374Z,23.79
2019-04-30T08:48:44.260Z,25.10
2019-04-30T08:51:05.118Z,26.61
2019-04-30T08:53:38.511Z,29.02
2019-04-30T08:56:10.966Z,27.07
2019-04-30T08:58:42.988Z,29.63
2019-04-30T09:01:15.009Z,28.31
2019-04-30T09:03:47.086Z,22.39
2019-04-30T09:06:29.129Z,22.73
2019-04-30T09:09:06.552Z,25.38
2019-04-30T09:11:51.855Z,31.24
2019-04-30T09:14:12.305Z,34.96
2019-04-30T09:16:44.503Z,35.68
2019-04-30T09:19:16.761Z,36.54
2019-04-30T09:21:48.969Z,37.60
2019-04-30T09:24:21.309Z,36.19
2019-04-30T09:26:53.371Z,37.34
2019-04-30T09:29:25.457Z,34.51
2019-04-30T09:31:59.420Z,23.08
2019-04-30T09:34:31.389Z,18.41
2019-04-30T09:37:03.479Z,17.50
2019-04-30T09:39:35.739Z,19.04
2019-04-30T09:42:09.271Z,18.87
2019-04-30T09:44:41.508Z,18.25
2019-04-30T09:47:13.632Z,15.82
2019-04-30T09:49:45.670Z,19.84
2019-04-30T09:52:19.247Z,24.04
2019-04-30T09:54:51.702Z,26.79
2019-04-30T09:57:24.263Z,28.19
2019-04-30T09:59:56.262Z,25.81
2019-04-30T10:02:29.064Z,22.81
2019-04-30T10:05:01.852Z,19.08
2019-04-30T10:07:34.454Z,17.19
2019-04-30T10:10:09.399Z,19.55
2019-04-30T10:12:41.038Z,21.85
2019-04-30T10:15:18.830Z,23.55
2019-04-30T10:17:50.674Z,23.17
2019-04-30T10:20:30.463Z,20.11
2019-04-30T10:23:02.467Z,20.63
2019-04-30T10:25:34.482Z,14.70
2019-04-30T10:28:06.876Z,11.40
2019-04-30T10:30:39.537Z,12.75
2019-04-30T10:33:11.525Z,12.72
2019-04-30T10:35:43.525Z,15.85
2019-04-30T10:38:15.540Z,18.18
2019-04-30T10:40:48.790Z,20.88
2019-04-30T10:43:20.913Z,17.58
2019-04-30T10:45:53.070Z,12.54
2019-04-30T10:48:25.490Z,9.29
2019-04-30T10:50:58.851Z,9.27
2019-04-30T10:53:31.616Z,11.37
2019-04-30T10:56:03.661Z,11.82
2019-04-30T10:58:35.793Z,10.44
2019-04-30T11:01:09.611Z,9.11
2019-04-30T11:03:42.964Z,9.68
2019-04-30T11:06:16.315Z,9.22
2019-04-30T11:08:50.730Z,8.09
2019-04-30T11:11:22.879Z,8.68
2019-04-30T11:13:54.884Z,7.68
2019-04-30T11:16:27.235Z,9.36
2019-04-30T11:18:59.380Z,12.04
2019-04-30T11:21:32.328Z,14.81
2019-04-30T11:24:05.041Z,16.91
2019-04-30T11:26:39.722Z,16.56
2019-04-30T11:29:11.298Z,17.64
2019-04-30T11:31:49.731Z,19.66
2019-04-30T11:34:22.215Z,20.88
2019-04-30T11:36:56.869Z,21.54
2019-04-30T11:39:29.784Z,24.22
2019-04-30T11:42:01.933Z,26.99
2019-04-30T11:44:33.995Z,28.59
2019-04-30T11:47:52.638Z,29.99
2019-04-30T11:50:16.160Z,31.12
2019-04-30T11:52:48.235Z,32.41
2019-04-30T11:55:20.325Z,32.72
2019-04-30T11:57:52.451Z,33.38
2019-04-30T12:00:32.188Z,34.67
2019-04-30T12:03:09.039Z,35.83
2019-04-30T12:05:41.634Z,38.27
2019-04-30T12:08:22.681Z,39.46
2019-04-30T12:11:24.715Z,38.19
2019-04-30T12:13:58.535Z,36.84
2019-04-30T12:16:33.604Z,34.73
2019-04-30T12:19:08.907Z,33.80
2019-04-30T12:21:43.265Z,32.45
2019-04-30T12:24:15.341Z,30.98
2019-04-30T12:26:51.092Z,30.02
2019-04-30T12:29:26.339Z,29.65
2019-04-30T12:31:58.404Z,30.54
2019-04-30T12:34:33.682Z,31.10
2019-04-30T12:37:05.754Z,30.49
2019-04-30T12:39:39.454Z,31.24
2019-04-30T12:42:12.878Z,31.69
2019-04-30T12:44:45.308Z,31.78
2019-04-30T12:47:21.474Z,31.04
2019-04-30T12:50:13.665Z,30.57
2019-04-30T12:52:50.392Z,29.92
2019-04-30T12:55:48.933Z,29.64
2019-04-30T12:58:23.073Z,30.03
2019-04-30T13:00:59.133Z,29.99
2019-04-30T13:03:32.929Z,30.08
2019-04-30T13:06:05.765Z,30.62
2019-04-30T13:08:39.592Z,31.31
2019-04-30T13:11:13.086Z,31.59
2019-04-30T13:13:50.492Z,32.40
2019-04-30T13:16:25.306Z,32.33
2019-04-30T13:18:59.395Z,31.60
2019-04-30T13:21:31.653Z,31.34
2019-04-30T13:24:03.704Z,29.51
2019-04-30T13:26:35.801Z,29.56
2019-04-30T13:29:16.966Z,30.64
2019-04-30T13:31:50.338Z,31.64
2019-04-30T13:34:50.202Z,33.07
2019-04-30T13:37:22.253Z,34.18
2019-04-30T13:40:20.113Z,33.96
2019-04-30T13:42:52.226Z,33.88
2019-04-30T13:45:25.417Z,34.00
2019-04-30T13:47:58.889Z,33.73
2019-04-30T13:50:32.319Z,33.45
2019-04-30T13:53:04.345Z,33.58
2019-04-30T13:55:43.635Z,32.61
2019-04-30T13:58:10.318Z,32.36
2019-04-30T14:00:42.296Z,32.18
2019-04-30T14:03:22.425Z,32.54
2019-04-30T14:05:54.572Z,33.08
2019-04-30T14:08:38.833Z,33.55
2019-04-30T14:11:11.134Z,35.25
2019-04-30T14:13:43.179Z,36.55
2019-04-30T14:16:15.905Z,37.71
2019-04-30T14:18:48.798Z,38.13
2019-04-30T14:21:32.250Z,38.63
2019-04-30T14:23:54.892Z,39.22
2019-04-30T14:26:26.933Z,40.19
2019-04-30T14:28:58.945Z,40.83
2019-04-30T14:31:30.996Z,40.76
2019-04-30T14:34:02.956Z,38.92
2019-04-30T14:36:34.928Z,37.92
2019-04-30T14:39:14.650Z,37.56
2019-04-30T14:41:44.189Z,37.91
2019-04-30T14:44:21.400Z,37.22
2019-04-30T14:47:12.368Z,37.15
2019-04-30T14:50:05.428Z,36.38
2019-04-30T14:52:44.751Z,35.13
2019-04-30T14:55:34.243Z,34.17
2019-04-30T14:58:29.333Z,34.58
2019-04-30T15:01:09.986Z,35.13
2019-04-30T15:03:42.062Z,33.63
2019-04-30T15:06:14.019Z,34.40
2019-04-30T15:08:46.013Z,34.15
2019-04-30T15:11:19.045Z,34.15
2019-04-30T15:13:51.328Z,35.09
2019-04-30T15:16:23.433Z,36.07
2019-04-30T15:18:55.488Z,36.28
2019-04-30T15:21:27.673Z,38.60
2019-04-30T15:24:23.211Z,37.11
2019-04-30T15:26:58.761Z,37.71
2019-04-30T15:29:29.599Z,37.98
2019-04-30T15:32:01.631Z,39.62
2019-04-30T15:34:33.656Z,37.41
2019-04-30T15:37:18.510Z,37.72
2019-04-30T15:39:41.040Z,37.01
2019-04-30T15:42:13.952Z,37.41
2019-04-30T15:44:46.175Z,37.91
2019-04-30T15:47:20.561Z,38.75
2019-04-30T15:49:52.574Z,41.02
2019-04-30T15:52:24.610Z,40.46
2019-04-30T15:54:56.646Z,41.02
2019-04-30T15:57:29.520Z,40.98
2019-04-30T16:00:01.810Z,42.44
2019-04-30T16:02:53.475Z,43.69
2019-04-30T16:05:41.272Z,42.67
2019-04-30T16:08:29.041Z,42.44
2019-04-30T16:11:27.053Z,41.63
2019-04-30T16:14:18.658Z,41.99
2019-04-30T16:17:13.850Z,39.57
2019-04-30T16:19:45.949Z,38.82
2019-04-30T16:22:19.231Z,39.75
2019-04-30T16:24:54.571Z,39.44
2019-04-30T16:27:25.587Z,37.33
2019-04-30T16:29:59.404Z,36.51
2019-04-30T16:32:31.301Z,37.96
2019-04-30T16:35:03.382Z,38.75
2019-04-30T16:37:35.475Z,40.32
2019-04-30T16:40:08.585Z,40.00
2019-04-30T16:42:41.385Z,40.46
2019-04-30T16:45:13.435Z,40.35
2019-04-30T16:47:45.412Z,41.53
2019-04-30T16:50:18.797Z,41.30
2019-04-30T16:52:50.909Z,41.89
2019-04-30T16:55:22.928Z,42.08
2019-04-30T16:57:54.923Z,42.10
2019-04-30T17:00:29.063Z,42.53
2019-04-30T17:03:05.511Z,44.21
2019-04-30T17:05:45.484Z,43.65
2019-04-30T17:08:39.403Z,43.64
2019-04-30T17:11:16.768Z,44.46
2019-04-30T17:13:52.739Z,44.64
2019-04-30T17:16:25.026Z,46.54
2019-04-30T17:18:59.008Z,49.90
2019-04-30T17:21:30.827Z,45.72
2019-04-30T17:24:02.905Z,44.81
2019-04-30T17:26:34.880Z,46.50
2019-04-30T17:29:07.035Z,43.78
2019-04-30T17:31:39.006Z,44.52
2019-04-30T17:34:11.485Z,44.45
2019-04-30T17:36:43.441Z,44.08
2019-04-30T17:39:18.105Z,49.03
2019-04-30T17:41:50.713Z,53.54
2019-04-30T17:44:22.674Z,56.49
2019-04-30T17:46:54.685Z,56.78
2019-04-30T17:49:29.878Z,57.89
2019-04-30T17:52:04.275Z,59.07
2019-04-30T17:54:36.283Z,59.53
2019-04-30T17:57:10.671Z,59.50
2019-04-30T17:59:42.904Z,61.10
2019-04-30T18:02:16.708Z,62.40
2019-04-30T18:04:48.772Z,63.17
2019-04-30T18:07:21.179Z,64.31
2019-04-30T18:09:54.423Z,67.27
2019-04-30T18:12:26.609Z,68.10
2019-04-30T18:15:00.025Z,68.86
2019-04-30T18:17:32.145Z,68.76
2019-04-30T18:20:21.283Z,69.04
2019-04-30T18:23:14.318Z,69.18
2019-04-30T18:25:53.557Z,69.07
2019-04-30T18:28:25.981Z,69.25
2019-04-30T18:30:59.031Z,69.45
2019-04-30T18:33:31.293Z,68.69
2019-04-30T18:36:03.297Z,68.56
2019-04-30T18:38:35.380Z,68.59
2019-04-30T18:41:09.339Z,68.75
2019-04-30T18:43:41.346Z,69.36
2019-04-30T18:46:13.446Z,69.34
2019-04-30T18:48:45.497Z,69.98
2019-04-30T18:51:32.931Z,70.17
2019-04-30T18:53:51.330Z,70.11
2019-04-30T18:56:23.348Z,69.78
2019-04-30T18:58:55.360Z,69.67
2019-04-30T19:01:27.435Z,69.37
2019-04-30T19:04:01.166Z,69.38
2019-04-30T19:06:33.302Z,68.91
2019-04-30T19:09:29.513Z,68.66
2019-04-30T19:12:11.775Z,68.10
2019-04-30T19:15:11.554Z,67.63
2019-04-30T19:18:08.184Z,67.26
2019-04-30T19:20:46.572Z,66.91
2019-04-30T19:23:19.103Z,66.79
2019-04-30T19:25:51.234Z,66.61
2019-04-30T19:28:23.264Z,66.18
2019-04-30T19:30:58.305Z,65.74
2019-04-30T19:33:31.070Z,65.42
2019-04-30T19:36:03.047Z,65.26
2019-04-30T19:38:35.053Z,64.79
2019-04-30T19:41:09.065Z,64.19
2019-04-30T19:43:41.284Z,64.27
2019-04-30T19:46:13.226Z,64.53
2019-04-30T19:48:45.385Z,64.25
2019-04-30T19:51:19.592Z,63.66
2019-04-30T19:53:51.512Z,64.17
2019-04-30T19:56:23.776Z,64.20
2019-04-30T19:59:02.903Z,64.32
2019-04-30T20:01:30.269Z,63.80
2019-04-30T20:04:02.659Z,64.57
2019-04-30T20:06:34.696Z,64.62
2019-04-30T20:09:08.947Z,64.65
2019-04-30T20:11:42.544Z,65.10
2019-04-30T20:14:14.810Z,66.11
2019-04-30T20:16:48.379Z,67.12
2019-04-30T20:19:20.732Z,68.08
2019-04-30T20:21:53.940Z,68.37
2019-04-30T20:24:26.236Z,67.81
2019-04-30T20:27:07.058Z,67.58
2019-04-30T20:29:32.337Z,67.84
2019-04-30T20:32:04.396Z,68.96
2019-04-30T20:34:36.596Z,71.53
2019-04-30T20:37:08.735Z,71.37
2019-04-30T20:39:52.606Z,72.20
2019-04-30T20:42:24.713Z,72.21
2019-04-30T20:44:58.782Z,73.42
2019-04-30T20:47:30.487Z,73.49
2019-04-30T20:50:02.557Z,73.22
2019-04-30T20:52:34.639Z,73.16
2019-04-30T20:55:06.808Z,73.12
2019-04-30T20:57:39.483Z,73.10
2019-04-30T21:00:11.839Z,72.78
2019-04-30T21:02:43.822Z,72.54
2019-04-30T21:05:15.857Z,72.78
2019-04-30T21:07:48.072Z,72.53
2019-04-30T21:10:21.660Z,72.49
2019-04-30T21:12:53.674Z,72.27
2019-04-30T21:15:25.722Z,72.08
2019-04-30T21:18:00.485Z,72.56
2019-04-30T21:20:38.831Z,72.75
2019-04-30T21:23:10.750Z,72.76
2019-04-30T21:25:44.514Z,72.75
2019-04-30T21:28:19.755Z,72.67
2019-04-30T21:30:52.442Z,72.74
2019-04-30T21:33:38.458Z,72.62
2019-04-30T21:36:18.894Z,72.45
2019-04-30T21:38:52.479Z,72.41
2019-04-30T21:41:25.375Z,72.24
2019-04-30T21:43:57.457Z,72.45
2019-04-30T21:46:29.574Z,73.02
2019-04-30T21:49:02.439Z,73.07
2019-04-30T21:51:34.556Z,73.11
2019-04-30T21:54:08.215Z,73.07
2019-04-30T21:56:40.306Z,73.10
2019-04-30T21:59:23.741Z,72.74
2019-04-30T22:01:47.815Z,72.65
2019-04-30T22:04:21.181Z,73.31
2019-04-30T22:06:53.327Z,74.03
2019-04-30T22:09:25.337Z,74.27
2019-04-30T22:11:59.131Z,74.50
2019-04-30T22:14:31.253Z,74.86
2019-04-30T22:17:03.399Z,75.01
2019-04-30T22:19:35.391Z,75.54
2019-04-30T22:22:09.260Z,75.70
2019-04-30T22:24:41.314Z,75.98
2019-04-30T22:27:13.343Z,76.24
2019-04-30T22:29:45.864Z,76.07
2019-04-30T22:32:17.978Z,75.92
2019-04-30T22:34:51.154Z,75.81
2019-04-30T22:37:23.619Z,75.79
2019-04-30T22:40:01.128Z,75.88
2019-04-30T22:42:34.738Z,75.83
2019-04-30T22:45:13.680Z,76.01
2019-04-30T22:47:50.195Z,75.92
2019-04-30T22:50:23.501Z,75.57
2019-04-30T22:52:55.563Z,75.61
2019-04-30T22:55:30.759Z,75.73
2019-04-30T22:58:03.039Z,75.85
2019-04-30T23:00:39.069Z,76.09
2019-04-30T23:03:14.342Z,76.52
2019-04-30T23:05:46.490Z,76.85
2019-04-30T23:08:18.846Z,76.97
2019-04-30T23:10:51.159Z,76.82
2019-04-30T23:13:23.331Z,76.88
2019-04-30T23:15:56.456Z,77.15
2019-04-30T23:18:28.450Z,77.50
2019-04-30T23:21:00.773Z,77.50
2019-04-30T23:23:32.857Z,77.67
2019-04-30T23:26:05.780Z,77.70
2019-04-30T23:28:38.058Z,77.80
2019-04-30T23:31:10.286Z,78.15
2019-04-30T23:33:42.295Z,78.48
2019-04-30T23:36:14.274Z,78.55
2019-04-30T23:38:46.322Z,79.23
2019-04-30T23:41:18.352Z,79.72
2019-04-30T23:43:50.737Z,80.13
2019-04-30T23:46:22.710Z,80.44
2019-04-30T23:48:54.842Z,80.55
2019-04-30T23:51:26.855Z,80.42
2019-04-30T23:53:58.830Z,80.29
2019-04-30T23:56:30.842Z,80.30
2019-04-30T23:59:02.814Z,80.55
